createdAt,value
2022-11-24T00:00:46.927Z,99306.81
2022-11-24T00:01:49.789Z,99300.91
2022-11-24T00:02:51.655Z,99302.63
2022-11-24T00:03:57.712Z,99300.91
2022-11-24T00:04:59.540Z,99307.22
2022-11-24T00:06:07.472Z,99306.38
2022-11-24T00:07:09.221Z,99309.13
2022-11-24T00:08:13.060Z,99305.53
2022-11-24T00:09:14.898Z,99307.44
2022-11-24T00:10:17.757Z,99303.19
2022-11-24T00:11:21.122Z,99303.81
2022-11-24T00:12:23.881Z,99309.69
2022-11-24T00:13:25.560Z,99308.44
2022-11-24T00:14:28.411Z,99301.09
2022-11-24T00:15:30.156Z,99300.91
2022-11-24T00:16:34.664Z,99303.41
2022-11-24T00:17:36.502Z,99304.28
2022-11-24T00:18:40.287Z,99297.56
2022-11-24T00:19:43.983Z,99304.91
2022-11-24T00:20:53.012Z,99297.56
2022-11-24T00:21:54.975Z,99296.53
2022-11-24T00:22:57.671Z,99298.81
2022-11-24T00:23:59.990Z,99302.22
2022-11-24T00:25:02.656Z,99295.66
2022-11-24T00:26:06.364Z,99297.34
2022-11-24T00:27:09.710Z,99302.63
2022-11-24T00:28:11.400Z,99307.88
2022-11-24T00:29:14.069Z,99308.69
2022-11-24T00:30:16.416Z,99302.63
2022-11-24T00:31:21.752Z,99303.47
2022-11-24T00:32:23.510Z,99309.78
2022-11-24T00:33:26.484Z,99308.94
2022-11-24T00:34:28.240Z,99308.94
2022-11-24T00:35:32.389Z,99314.16
2022-11-24T00:36:36.228Z,99320.91
2022-11-24T00:37:37.877Z,99318.59
2022-11-24T00:38:40.846Z,99325.94
2022-11-24T00:39:43.603Z,99317.09
2022-11-24T00:40:45.273Z,99324.25
2022-11-24T00:41:49.156Z,99320.66
2022-11-24T00:42:50.849Z,99321.53
2022-11-24T00:43:54.078Z,99324.06
2022-11-24T00:44:55.950Z,99326.94
2022-11-24T00:45:58.727Z,99331.19
2022-11-24T00:47:00.685Z,99336.41
2022-11-24T00:48:03.452Z,99336.63
2022-11-24T00:49:06.704Z,99340.63
2022-11-24T00:50:09.192Z,99334.13
2022-11-24T00:51:15.147Z,99338.13
2022-11-24T00:52:16.852Z,99333.28
2022-11-24T00:53:19.564Z,99334.13
2022-11-24T00:54:21.411Z,99339.38
2022-11-24T00:55:24.092Z,99336.66
2022-11-24T00:56:29.604Z,99346.53
2022-11-24T00:57:32.352Z,99346.53
2022-11-24T00:58:34.464Z,99336.66
2022-11-24T00:59:37.114Z,99349.66
2022-11-24T01:00:38.813Z,99350.31
2022-11-24T01:01:42.386Z,99346.53
2022-11-24T01:02:44.456Z,99352.63
2022-11-24T01:03:47.759Z,99356.84
2022-11-24T01:04:49.507Z,99350.34
2022-11-24T01:05:52.214Z,99357.25
2022-11-24T01:06:55.334Z,99363.13
2022-11-24T01:07:58.146Z,99352.44
2022-11-24T01:08:59.939Z,99363.78
2022-11-24T01:10:03.064Z,99361.06
2022-11-24T01:11:09.954Z,99362.75
2022-11-24T01:12:12.654Z,99363.59
2022-11-24T01:13:14.304Z,99367.16
2022-11-24T01:14:16.995Z,99369.91
2022-11-24T01:15:19.681Z,99366.09
2022-11-24T01:16:24.177Z,99371.56
2022-11-24T01:17:26.401Z,99366.50
2022-11-24T01:18:29.080Z,99369.91
2022-11-24T01:19:30.816Z,99378.69
2022-11-24T01:20:33.790Z,99368.63
2022-11-24T01:21:35.442Z,99367.97
2022-11-24T01:22:39.620Z,99376.16
2022-11-24T01:23:41.324Z,99381.63
2022-11-24T01:24:44.407Z,99373.44
2022-11-24T01:25:46.159Z,99379.56
2022-11-24T01:26:48.842Z,99375.78
2022-11-24T01:27:50.854Z,99380.59
2022-11-24T01:28:54.191Z,99375.13
2022-11-24T01:29:55.895Z,99383.09
2022-11-24T01:30:59.390Z,99382.06
2022-11-24T01:32:02.104Z,99380.81
2022-11-24T01:33:03.993Z,99384.16
2022-11-24T01:34:06.699Z,99382.28
2022-11-24T01:35:09.492Z,99385.00
2022-11-24T01:36:12.679Z,99386.28
2022-11-24T01:37:14.488Z,99388.16
2022-11-24T01:38:18.532Z,99394.66
2022-11-24T01:39:20.256Z,99388.78
2022-11-24T01:40:22.946Z,99399.31
2022-11-24T01:41:26.089Z,99395.28
2022-11-24T01:42:38.507Z,99393.22
2022-11-24T01:43:40.829Z,99399.53
2022-11-24T01:44:43.681Z,99397.63
2022-11-24T01:45:45.760Z,99399.31
2022-11-24T01:46:50.431Z,99401.41
2022-11-24T01:47:52.138Z,99390.69
2022-11-24T01:49:01.130Z,99396.75
2022-11-24T01:50:03.869Z,99393.84
2022-11-24T01:51:10.567Z,99395.06
2022-11-24T01:52:16.593Z,99390.03
2022-11-24T01:53:21.787Z,99402.22
2022-11-24T01:54:26.380Z,99400.34
2022-11-24T01:55:32.122Z,99403.47
2022-11-24T01:56:36.608Z,99401.56
2022-11-24T01:57:43.104Z,99395.69
2022-11-24T01:58:47.044Z,99397.16
2022-11-24T01:59:50.643Z,99392.13
2022-11-24T02:00:53.395Z,99399.28
2022-11-24T02:01:56.404Z,99398.44
2022-11-24T02:02:59.852Z,99400.13
2022-11-24T02:04:01.792Z,99404.50
2022-11-24T02:05:07.114Z,99405.13
2022-11-24T02:06:10.177Z,99408.94
2022-11-24T02:07:13.802Z,99410.81
2022-11-24T02:08:25.081Z,99413.31
2022-11-24T02:09:31.048Z,99408.69
2022-11-24T02:10:33.095Z,99408.91
2022-11-24T02:11:39.159Z,99411.63
2022-11-24T02:12:43.494Z,99416.91
2022-11-24T02:13:47.176Z,99413.94
2022-11-24T02:14:49.385Z,99413.09
2022-11-24T02:15:54.108Z,99417.69
2022-11-24T02:16:55.838Z,99420.44
2022-11-24T02:18:00.152Z,99421.66
2022-11-24T02:19:02.058Z,99424.84
2022-11-24T02:20:07.128Z,99419.16
2022-11-24T02:21:09.802Z,99422.56
2022-11-24T02:22:18.977Z,99421.28
2022-11-24T02:23:25.163Z,99418.97
2022-11-24T02:24:34.633Z,99408.91
2022-11-24T02:25:42.422Z,99423.81
2022-11-24T02:26:47.748Z,99418.34
2022-11-24T02:27:53.862Z,99416.47
2022-11-24T02:28:57.267Z,99416.47
2022-11-24T02:29:59.245Z,99415.44
2022-11-24T02:31:02.280Z,99417.94
2022-11-24T02:32:06.396Z,99418.78
2022-11-24T02:33:09.056Z,99419.84
2022-11-24T02:34:10.771Z,99426.13
2022-11-24T02:35:15.008Z,99420.47
2022-11-24T02:36:17.108Z,99427.44
2022-11-24T02:37:19.758Z,99427.44
2022-11-24T02:38:29.935Z,99421.13
2022-11-24T02:39:32.722Z,99420.91
2022-11-24T02:40:34.589Z,99422.78
2022-11-24T02:41:37.475Z,99420.03
2022-11-24T02:42:43.228Z,99417.31
2022-11-24T02:43:49.277Z,99421.53
2022-11-24T02:44:55.116Z,99423.22
2022-11-24T02:45:57.836Z,99417.78
2022-11-24T02:47:06.566Z,99411.47
2022-11-24T02:48:09.599Z,99413.16
2022-11-24T02:49:11.313Z,99423.22
2022-11-24T02:50:14.165Z,99419.84
2022-11-24T02:51:15.829Z,99425.13
2022-11-24T02:52:18.568Z,99414.38
2022-11-24T02:53:20.411Z,99425.31
2022-11-24T02:54:23.183Z,99426.59
2022-11-24T02:55:24.934Z,99422.78
2022-11-24T02:56:27.860Z,99421.97
2022-11-24T02:57:29.540Z,99426.59
2022-11-24T02:58:33.652Z,99427.63
2022-11-24T02:59:35.363Z,99429.31
2022-11-24T03:00:37.990Z,99424.91
2022-11-24T03:01:39.744Z,99424.91
2022-11-24T03:02:42.549Z,99429.31
2022-11-24T03:03:44.392Z,99428.47
2022-11-24T03:04:47.164Z,99433.94
2022-11-24T03:05:48.900Z,99433.69
2022-11-24T03:06:51.644Z,99424.69
2022-11-24T03:07:53.367Z,99417.53
2022-11-24T03:08:56.371Z,99427.44
2022-11-24T03:09:58.058Z,99430.16
2022-11-24T03:11:01.962Z,99427.44
2022-11-24T03:12:03.981Z,99429.09
2022-11-24T03:13:06.644Z,99435.63
2022-11-24T03:14:09.972Z,99424.69
2022-11-24T03:15:12.962Z,99428.47
2022-11-24T03:16:14.709Z,99431.19
2022-11-24T03:17:17.590Z,99436.00
2022-11-24T03:18:19.360Z,99432.44
2022-11-24T03:19:22.078Z,99427.19
2022-11-24T03:20:24.341Z,99427.19
2022-11-24T03:21:27.038Z,99428.25
2022-11-24T03:22:28.922Z,99424.00
2022-11-24T03:23:31.641Z,99433.91
2022-11-24T03:24:33.671Z,99431.16
2022-11-24T03:25:36.713Z,99432.84
2022-11-24T03:26:38.375Z,99436.81
2022-11-24T03:27:41.075Z,99425.09
2022-11-24T03:28:42.822Z,99423.41
2022-11-24T03:29:46.908Z,99431.59
2022-11-24T03:30:48.759Z,99429.25
2022-11-24T03:31:51.533Z,99423.78
2022-11-24T03:32:53.600Z,99427.34
2022-11-24T03:33:56.476Z,99427.59
2022-11-24T03:34:58.122Z,99425.25
2022-11-24T03:36:00.771Z,99423.16
2022-11-24T03:37:02.448Z,99428.63
2022-11-24T03:38:05.086Z,99429.66
2022-11-24T03:39:07.284Z,99435.97
2022-11-24T03:40:10.900Z,99430.50
2022-11-24T03:41:12.632Z,99438.28
2022-11-24T03:42:15.348Z,99439.13
2022-11-24T03:43:17.153Z,99436.41
2022-11-24T03:44:20.031Z,99432.19
2022-11-24T03:45:44.832Z,99429.47
2022-11-24T03:46:45.871Z,99425.69
2022-11-24T03:47:50.322Z,99424.63
2022-11-24T03:48:53.219Z,99423.59
2022-11-24T03:49:54.879Z,99418.97
2022-11-24T03:50:59.026Z,99417.28
2022-11-24T03:52:05.118Z,99432.44
2022-11-24T03:53:10.658Z,99430.75
2022-11-24T03:54:12.596Z,99442.50
2022-11-24T03:55:15.478Z,99452.38
2022-11-24T03:56:17.136Z,99437.91
2022-11-24T03:57:19.926Z,99437.66
2022-11-24T03:58:21.933Z,99429.91
2022-11-24T03:59:24.594Z,99435.34
2022-11-24T04:00:27.890Z,99439.34
2022-11-24T04:01:30.579Z,99439.13
2022-11-24T04:02:32.442Z,99444.59
2022-11-24T04:03:35.439Z,99449.44
2022-11-24T04:04:37.146Z,99442.91
2022-11-24T04:05:39.805Z,99441.19
2022-11-24T04:06:41.568Z,99447.09
2022-11-24T04:07:44.285Z,99438.28
2022-11-24T04:08:46.151Z,99449.63
2022-11-24T04:09:48.840Z,99459.28
2022-11-24T04:10:51.343Z,99462.25
2022-11-24T04:12:11.835Z,99466.66
2022-11-24T04:13:16.546Z,99469.81
2022-11-24T04:14:19.338Z,99468.97
2022-11-24T04:15:22.293Z,99471.69
2022-11-24T04:16:25.361Z,99472.97
2022-11-24T04:17:29.455Z,99468.16
2022-11-24T04:18:31.262Z,99474.66
2022-11-24T04:19:33.910Z,99473.16
2022-11-24T04:20:36.202Z,99482.66
2022-11-24T04:21:38.843Z,99476.13
2022-11-24T04:22:40.620Z,99472.34
2022-11-24T04:23:43.349Z,99477.63
2022-11-24T04:24:45.039Z,99475.69
2022-11-24T04:25:47.999Z,99479.09
2022-11-24T04:26:49.784Z,99482.84
2022-11-24T04:27:53.410Z,99479.94
2022-11-24T04:28:55.399Z,99483.69
2022-11-24T04:29:58.031Z,99480.13
2022-11-24T04:31:02.151Z,99480.75
2022-11-24T04:32:06.599Z,99477.22
2022-11-24T04:33:08.305Z,99479.56
2022-11-24T04:34:11.984Z,99488.16
2022-11-24T04:35:14.171Z,99486.28
2022-11-24T04:36:16.840Z,99491.31
2022-11-24T04:37:18.498Z,99491.75
2022-11-24T04:39:23.502Z,99494.47
2022-11-24T04:39:42.872Z,99489.03
2022-11-24T04:40:45.648Z,99493.25
2022-11-24T04:41:47.388Z,99499.34
2022-11-24T04:42:57.302Z,99500.63
2022-11-24T04:43:58.971Z,99491.16
2022-11-24T04:45:01.849Z,99500.00
2022-11-24T04:46:03.745Z,99502.31
2022-11-24T04:47:08.100Z,99503.16
2022-11-24T04:48:09.886Z,99498.75
2022-11-24T04:49:12.551Z,99506.09
2022-11-24T04:50:14.382Z,99508.22
2022-11-24T04:51:17.078Z,99513.25
2022-11-24T04:52:19.697Z,99508.63
2022-11-24T04:53:22.643Z,99504.00
2022-11-24T04:54:24.343Z,99510.94
2022-11-24T04:55:27.016Z,99511.59
2022-11-24T04:56:28.710Z,99510.31
2022-11-24T04:57:31.408Z,99507.16
2022-11-24T04:58:33.280Z,99509.47
2022-11-24T04:59:35.970Z,99516.63
2022-11-24T05:00:38.204Z,99509.09
2022-11-24T05:01:41.054Z,99509.50
2022-11-24T05:02:44.099Z,99505.72
2022-11-24T05:03:46.818Z,99511.81
2022-11-24T05:04:48.771Z,99511.19
2022-11-24T05:05:51.523Z,99512.66
2022-11-24T05:06:53.614Z,99513.31
2022-11-24T05:07:56.495Z,99516.47
2022-11-24T05:08:58.290Z,99521.94
2022-11-24T05:10:18.266Z,99523.63
2022-11-24T05:11:21.015Z,99524.25
2022-11-24T05:12:23.436Z,99526.97
2022-11-24T05:13:29.056Z,99524.03
2022-11-24T05:14:30.696Z,99528.03
2022-11-24T05:15:33.542Z,99524.69
2022-11-24T05:16:35.979Z,99520.06
2022-11-24T05:17:40.062Z,99521.72
2022-11-24T05:18:43.257Z,99528.69
2022-11-24T05:19:45.987Z,99530.16
2022-11-24T05:20:49.514Z,99525.53
2022-11-24T05:21:52.321Z,99532.50
2022-11-24T05:22:55.007Z,99535.22
2022-11-24T05:23:56.673Z,99525.97
2022-11-24T05:24:59.748Z,99538.81
2022-11-24T05:26:02.103Z,99535.66
2022-11-24T05:27:04.891Z,99541.13
2022-11-24T05:28:09.942Z,99532.06
2022-11-24T05:29:12.574Z,99529.13
2022-11-24T05:30:14.435Z,99533.75
2022-11-24T05:31:17.177Z,99536.91
2022-11-24T05:32:18.891Z,99530.41
2022-11-24T05:33:23.249Z,99535.03
2022-11-24T05:34:26.295Z,99541.53
2022-11-24T05:35:29.146Z,99537.56
2022-11-24T05:36:49.350Z,99543.88
2022-11-24T05:37:52.107Z,99544.28
2022-11-24T05:38:53.807Z,99546.19
2022-11-24T05:39:56.556Z,99543.03
2022-11-24T05:41:00.788Z,99542.81
2022-11-24T05:42:25.683Z,99547.25
2022-11-24T05:43:27.683Z,99541.78
2022-11-24T05:44:30.323Z,99554.19
2022-11-24T05:45:32.103Z,99545.13
2022-11-24T05:46:34.815Z,99554.19
2022-11-24T05:47:37.421Z,99554.84
2022-11-24T05:48:40.197Z,99547.47
2022-11-24T05:49:43.443Z,99553.78
2022-11-24T05:50:46.142Z,99548.31
2022-11-24T05:51:47.949Z,99556.53
2022-11-24T05:52:50.836Z,99552.72
2022-11-24T05:53:52.594Z,99550.22
2022-11-24T05:54:55.261Z,99556.53
2022-11-24T05:55:56.962Z,99562.84
2022-11-24T05:56:59.999Z,99560.72
2022-11-24T05:58:04.449Z,99560.09
2022-11-24T05:59:09.788Z,99551.91
2022-11-24T06:00:13.915Z,99559.25
2022-11-24T06:01:15.650Z,99552.09
2022-11-24T06:02:19.115Z,99554.63
2022-11-24T06:03:22.056Z,99558.41
2022-11-24T06:04:23.715Z,99559.44
2022-11-24T06:05:28.917Z,99560.50
2022-11-24T06:06:30.724Z,99555.03
2022-11-24T06:07:33.545Z,99549.56
2022-11-24T06:08:35.224Z,99547.66
2022-11-24T06:09:38.613Z,99559.44
2022-11-24T06:10:40.303Z,99553.75
2022-11-24T06:11:43.230Z,99550.84
2022-11-24T06:12:44.984Z,99555.47
2022-11-24T06:13:49.318Z,99556.72
2022-11-24T06:14:51.320Z,99556.72
2022-11-24T06:15:54.247Z,99551.88
2022-11-24T06:16:56.133Z,99550.59
2022-11-24T06:17:58.926Z,99553.97
2022-11-24T06:19:00.713Z,99555.88
2022-11-24T06:20:03.607Z,99559.44
2022-11-24T06:21:11.512Z,99557.56
2022-11-24T06:22:14.618Z,99558.41
2022-11-24T06:23:17.362Z,99557.56
2022-11-24T06:24:19.112Z,99555.69
2022-11-24T06:25:21.786Z,99560.09
2022-11-24T06:26:23.636Z,99562.59
2022-11-24T06:27:26.285Z,99559.03
2022-11-24T06:28:28.097Z,99563.25
2022-11-24T06:29:30.781Z,99560.53
2022-11-24T06:30:33.557Z,99562.41
2022-11-24T06:31:35.337Z,99566.59
2022-11-24T06:32:39.015Z,99562.81
2022-11-24T06:33:40.723Z,99563.06
2022-11-24T06:34:43.702Z,99571.03
2022-11-24T06:35:45.485Z,99573.38
2022-11-24T06:36:49.502Z,99568.72
2022-11-24T06:37:51.424Z,99573.13
2022-11-24T06:38:54.083Z,99569.34
2022-11-24T06:39:56.770Z,99574.00
2022-11-24T06:41:00.022Z,99571.25
2022-11-24T06:42:02.731Z,99576.53
2022-11-24T06:43:04.496Z,99572.09
2022-11-24T06:44:07.210Z,99574.19
2022-11-24T06:45:10.824Z,99582.84
2022-11-24T06:46:13.009Z,99581.75
2022-11-24T06:47:15.997Z,99586.19
2022-11-24T06:48:17.720Z,99574.84
2022-11-24T06:49:20.624Z,99570.22
2022-11-24T06:50:22.416Z,99570.81
2022-11-24T06:51:26.364Z,99572.75
2022-11-24T06:52:31.560Z,99572.28
2022-11-24T06:53:37.753Z,99571.06
2022-11-24T06:54:40.417Z,99572.28
2022-11-24T06:55:42.573Z,99577.38
2022-11-24T06:56:45.259Z,99577.13
2022-11-24T06:57:46.931Z,99582.00
2022-11-24T06:58:50.660Z,99583.69
2022-11-24T06:59:52.402Z,99588.94
2022-11-24T07:00:55.406Z,99585.16
2022-11-24T07:01:58.162Z,99589.16
2022-11-24T07:03:00.447Z,99590.19
2022-11-24T07:04:04.423Z,99587.47
2022-11-24T07:05:07.320Z,99589.34
2022-11-24T07:06:10.006Z,99592.31
2022-11-24T07:07:12.841Z,99596.75
2022-11-24T07:08:18.013Z,99593.56
2022-11-24T07:09:20.845Z,99596.31
2022-11-24T07:10:22.493Z,99594.41
2022-11-24T07:11:25.343Z,99595.25
2022-11-24T07:12:27.193Z,99602.38
2022-11-24T07:13:29.884Z,99598.81
2022-11-24T07:14:33.133Z,99602.19
2022-11-24T07:15:35.378Z,99595.88
2022-11-24T07:16:38.411Z,99602.38
2022-11-24T07:17:40.764Z,99601.34
2022-11-24T07:18:43.785Z,99605.97
2022-11-24T07:19:46.475Z,99602.63
2022-11-24T07:20:48.362Z,99601.34
2022-11-24T07:21:51.175Z,99602.81
2022-11-24T07:22:56.259Z,99607.25
2022-11-24T07:24:00.400Z,99603.47
2022-11-24T07:25:07.179Z,99608.28
2022-11-24T07:26:09.879Z,99608.09
2022-11-24T07:27:12.582Z,99612.91
2022-11-24T07:28:14.679Z,99617.78
2022-11-24T07:29:17.763Z,99608.06
2022-11-24T07:30:19.534Z,99617.78
2022-11-24T07:31:24.981Z,99611.00
2022-11-24T07:32:27.050Z,99622.41
2022-11-24T07:33:29.809Z,99620.91
2022-11-24T07:34:32.967Z,99623.63
2022-11-24T07:35:34.973Z,99620.06
2022-11-24T07:36:38.847Z,99620.69
2022-11-24T07:37:41.531Z,99622.38
2022-11-24T07:38:43.282Z,99630.16
2022-11-24T07:39:47.388Z,99627.84
2022-11-24T07:40:49.014Z,99631.84
2022-11-24T07:41:51.658Z,99634.34
2022-11-24T07:42:53.469Z,99634.56
2022-11-24T07:43:56.775Z,99638.56
2022-11-24T07:44:59.512Z,99633.50
2022-11-24T07:46:02.277Z,99642.97
2022-11-24T07:47:05.017Z,99645.53
2022-11-24T07:48:08.031Z,99649.72
2022-11-24T07:49:10.717Z,99644.44
2022-11-24T07:50:12.926Z,99644.88
2022-11-24T07:51:15.983Z,99647.00
2022-11-24T07:52:17.635Z,99639.63
2022-11-24T07:53:20.481Z,99641.25
2022-11-24T07:54:23.247Z,99638.75
2022-11-24T07:55:26.285Z,99635.41
2022-11-24T07:56:29.094Z,99629.72
2022-11-24T07:57:30.924Z,99639.63
2022-11-24T07:58:34.969Z,99635.63
2022-11-24T07:59:37.667Z,99643.59
2022-11-24T08:00:39.538Z,99639.81
2022-11-24T08:01:42.472Z,99646.34
2022-11-24T08:02:44.658Z,99650.56
2022-11-24T08:03:47.840Z,99659.19
2022-11-24T08:04:49.594Z,99665.94
2022-11-24T08:06:22.155Z,99676.25
2022-11-24T08:07:17.854Z,99673.25
2022-11-24T08:08:19.652Z,99662.94
2022-11-24T08:09:22.382Z,99668.22
2022-11-24T08:10:24.102Z,99661.47
2022-11-24T08:11:28.770Z,99666.75
2022-11-24T08:12:32.363Z,99665.69
2022-11-24T08:13:34.518Z,99671.78
2022-11-24T08:14:37.259Z,99664.44
2022-11-24T08:15:39.523Z,99664.00
2022-11-24T08:16:42.262Z,99669.28
2022-11-24T08:17:44.210Z,99673.91
2022-11-24T08:18:50.733Z,99672.00
2022-11-24T08:19:52.430Z,99673.91
2022-11-24T08:20:55.345Z,99677.50
2022-11-24T08:21:58.054Z,99683.34
2022-11-24T08:23:00.787Z,99681.84
2022-11-24T08:24:03.611Z,99682.94
2022-11-24T08:25:06.050Z,99688.81
2022-11-24T08:26:10.827Z,99683.13
2022-11-24T08:27:15.332Z,99689.00
2022-11-24T08:28:17.120Z,99689.44
2022-11-24T08:29:19.793Z,99688.22
2022-11-24T08:30:21.473Z,99689.88
2022-11-24T08:31:27.496Z,99691.56
2022-11-24T08:32:29.549Z,99690.09
2022-11-24T08:33:32.248Z,99689.44
2022-11-24T08:34:34.441Z,99686.31
2022-11-24T08:35:38.436Z,99694.94
2022-11-24T08:36:41.225Z,99683.59
2022-11-24T08:37:42.998Z,99697.69
2022-11-24T08:38:46.134Z,99695.34
2022-11-24T08:39:47.905Z,99694.28
2022-11-24T08:40:50.593Z,99701.88
2022-11-24T08:41:53.463Z,99701.88
2022-11-24T08:43:00.717Z,99701.47
2022-11-24T08:44:02.533Z,99708.22
2022-11-24T08:45:19.918Z,99709.06
2022-11-24T08:46:24.187Z,99705.28
2022-11-24T08:47:26.209Z,99704.00
2022-11-24T08:48:29.232Z,99706.13
2022-11-24T08:49:31.877Z,99706.97
2022-11-24T08:50:35.582Z,99704.47
2022-11-24T08:51:38.467Z,99705.31
2022-11-24T08:52:41.130Z,99697.91
2022-11-24T08:53:43.582Z,99696.88
2022-11-24T08:54:46.794Z,99706.34
2022-11-24T08:55:48.721Z,99713.94
2022-11-24T08:56:51.448Z,99711.22
2022-11-24T08:57:54.158Z,99718.63
2022-11-24T08:58:58.770Z,99715.25
2022-11-24T09:00:01.583Z,99714.13
2022-11-24T09:01:08.147Z,99709.31
2022-11-24T09:02:12.432Z,99714.19
2022-11-24T09:03:14.227Z,99720.34
2022-11-24T09:04:16.986Z,99715.22
2022-11-24T09:05:50.151Z,99726.19
2022-11-24T09:06:41.626Z,99732.25
2022-11-24T09:07:43.474Z,99728.66
2022-11-24T09:08:46.369Z,99731.22
2022-11-24T09:09:49.031Z,99728.69
2022-11-24T09:10:51.440Z,99725.13
2022-11-24T09:11:54.089Z,99724.28
2022-11-24T09:12:56.822Z,99719.47
2022-11-24T09:14:01.046Z,99719.72
2022-11-24T09:15:02.895Z,99725.59
2022-11-24T09:16:06.221Z,99732.81
2022-11-24T09:17:09.003Z,99736.38
2022-11-24T09:18:11.829Z,99726.06
2022-11-24T09:19:14.559Z,99733.44
2022-11-24T09:20:17.688Z,99731.56
2022-11-24T09:21:22.126Z,99733.06
2022-11-24T09:22:24.877Z,99729.03
2022-11-24T09:23:26.992Z,99734.97
2022-11-24T09:24:29.633Z,99733.25
2022-11-24T09:25:31.426Z,99740.00
2022-11-24T09:26:36.014Z,99744.22
2022-11-24T09:27:38.683Z,99741.06
2022-11-24T09:28:40.977Z,99745.91
2022-11-24T09:29:45.962Z,99742.28
2022-11-24T09:30:48.734Z,99749.69
2022-11-24T09:31:51.523Z,99740.84
2022-11-24T09:32:55.372Z,99748.41
2022-11-24T09:33:59.467Z,99746.91
2022-11-24T09:35:02.206Z,99749.22
2022-11-24T09:36:05.602Z,99753.22
2022-11-24T09:37:08.269Z,99751.16
2022-11-24T09:38:10.326Z,99748.41
2022-11-24T09:39:13.160Z,99753.44
2022-11-24T09:40:16.580Z,99750.28
2022-11-24T09:41:36.140Z,99751.53
2022-11-24T09:42:42.218Z,99754.31
2022-11-24T09:43:56.021Z,99751.78
2022-11-24T09:45:13.192Z,99757.47
2022-11-24T09:46:20.980Z,99758.72
2022-11-24T09:47:32.596Z,99749.69
2022-11-24T09:48:37.648Z,99754.31
2022-11-24T09:49:49.853Z,99753.06
2022-11-24T09:50:54.145Z,99760.25
2022-11-24T09:51:56.759Z,99761.28
2022-11-24T09:53:03.773Z,99767.63
2022-11-24T09:54:11.767Z,99762.75
2022-11-24T09:55:22.415Z,99761.50
2022-11-24T09:56:27.677Z,99765.53
2022-11-24T09:57:37.560Z,99764.25
2022-11-24T09:58:44.430Z,99773.75
2022-11-24T09:59:46.100Z,99771.22
2022-11-24T10:00:53.807Z,99764.69
2022-11-24T10:01:56.870Z,99765.13
2022-11-24T10:02:58.749Z,99771.63
2022-11-24T10:04:06.295Z,99764.91
2022-11-24T10:05:09.993Z,99776.50
2022-11-24T10:06:21.851Z,99769.34
2022-11-24T10:07:29.419Z,99784.94
2022-11-24T10:09:07.688Z,99784.31
2022-11-24T10:10:21.176Z,99784.34
2022-11-24T10:11:36.210Z,99783.88
2022-11-24T10:12:51.118Z,99786.22
2022-11-24T10:14:09.679Z,99790.00
2022-11-24T10:15:21.609Z,99790.22
2022-11-24T10:16:40.222Z,99798.66
2022-11-24T10:17:57.330Z,99792.75
2022-11-24T10:19:05.447Z,99794.84
2022-11-24T10:20:12.710Z,99796.56
2022-11-24T10:21:28.024Z,99794.88
2022-11-24T10:22:41.772Z,99800.78
2022-11-24T10:23:57.418Z,99794.03
2022-11-24T10:25:10.222Z,99794.25
2022-11-24T10:26:17.094Z,99796.16
2022-11-24T10:27:22.801Z,99795.28
2022-11-24T10:28:29.965Z,99794.88
2022-11-24T10:29:37.783Z,99800.13
2022-11-24T10:30:40.681Z,99802.25
2022-11-24T10:31:45.941Z,99798.22
2022-11-24T10:32:54.711Z,99805.41
2022-11-24T10:33:59.374Z,99796.53
2022-11-24T10:35:15.985Z,99805.22
2022-11-24T10:36:22.995Z,99812.81
2022-11-24T10:37:29.881Z,99797.41
2022-11-24T10:38:37.116Z,99793.38
2022-11-24T10:39:46.582Z,99795.69
2022-11-24T10:40:58.789Z,99809.63
2022-11-24T10:42:05.694Z,99802.84
2022-11-24T10:43:10.502Z,99801.59
2022-11-24T10:44:14.939Z,99797.16
2022-11-24T10:45:19.643Z,99802.84
2022-11-24T10:46:25.816Z,99806.63
2022-11-24T10:47:31.047Z,99815.91
2022-11-24T10:48:38.958Z,99805.34
2022-11-24T10:49:41.728Z,99797.91
2022-11-24T10:50:44.434Z,99804.69
2022-11-24T10:52:08.489Z,99809.09
2022-11-24T10:53:18.410Z,99814.78
2022-11-24T10:54:21.405Z,99807.78
2022-11-24T10:55:24.073Z,99803.38
2022-11-24T10:56:25.834Z,99803.78
2022-11-24T10:57:31.235Z,99816.91
2022-11-24T10:58:37.947Z,99806.13
2022-11-24T10:59:41.115Z,99804.44
2022-11-24T11:00:43.814Z,99802.69
2022-11-24T11:01:45.636Z,99808.88
2022-11-24T11:02:51.048Z,99808.22
2022-11-24T11:03:55.310Z,99810.91
2022-11-24T11:04:58.133Z,99818.69
2022-11-24T11:06:02.899Z,99814.03
2022-11-24T11:07:09.811Z,99814.41
2022-11-24T11:08:19.875Z,99814.38
2022-11-24T11:09:23.916Z,99812.25
2022-11-24T11:10:25.556Z,99815.97
2022-11-24T11:11:29.160Z,99822.28
2022-11-24T11:12:47.107Z,99815.50
2022-11-24T11:13:56.889Z,99819.53
2022-11-24T11:15:23.502Z,99814.03
2022-11-24T11:16:32.746Z,99816.97
2022-11-24T11:17:37.019Z,99828.59
2022-11-24T11:18:41.104Z,99813.81
2022-11-24T11:19:54.130Z,99814.72
2022-11-24T11:20:58.500Z,99823.81
2022-11-24T11:22:02.677Z,99819.59
2022-11-24T11:23:17.358Z,99821.56
2022-11-24T11:24:20.187Z,99822.59
2022-11-24T11:25:24.766Z,99824.50
2022-11-24T11:26:36.222Z,99827.44
2022-11-24T11:27:39.713Z,99834.91
2022-11-24T11:28:42.414Z,99841.03
2022-11-24T11:31:22.034Z,99828.38
2022-11-24T11:34:10.852Z,99834.19
2022-11-24T11:35:18.727Z,99845.34
2022-11-24T11:36:20.438Z,99844.06
2022-11-24T11:37:25.947Z,99843.88
2022-11-24T11:38:34.138Z,99828.84
2022-11-24T11:39:43.868Z,99842.97
2022-11-24T11:40:50.454Z,99847.59
2022-11-24T11:41:59.434Z,99837.28
2022-11-24T11:43:05.824Z,99844.50
2022-11-24T11:44:15.392Z,99841.72
2022-11-24T11:45:21.189Z,99842.53
2022-11-24T11:46:26.355Z,99843.19
2022-11-24T11:47:32.488Z,99853.78
2022-11-24T11:48:43.271Z,99855.09
2022-11-24T11:49:49.220Z,99860.59
2022-11-24T11:51:22.299Z,99851.09
2022-11-24T11:52:31.284Z,99860.19
2022-11-24T11:53:44.745Z,99862.28
2022-11-24T11:55:15.939Z,99851.31
2022-11-24T11:56:24.421Z,99850.88
2022-11-24T11:57:34.243Z,99849.16
2022-11-24T11:59:15.188Z,99850.06
2022-11-24T12:00:19.256Z,99853.44
2022-11-24T12:01:39.602Z,99851.97
2022-11-24T12:03:17.768Z,99853.00
2022-11-24T12:04:24.883Z,99851.31
2022-11-24T12:05:32.533Z,99850.91
2022-11-24T12:06:48.686Z,99865.66
2022-11-24T12:08:06.359Z,99846.22
2022-11-24T12:09:21.389Z,99858.28
2022-11-24T12:10:31.215Z,99860.19
2022-11-24T12:11:38.956Z,99853.00
2022-11-24T12:12:51.167Z,99858.44
2022-11-24T12:14:05.474Z,99843.03
2022-11-24T12:15:11.345Z,99865.19
2022-11-24T12:16:30.986Z,99856.75
2022-11-24T12:17:37.675Z,99857.59
2022-11-24T12:18:59.371Z,99857.53
2022-11-24T12:20:14.775Z,99865.19
2022-11-24T12:21:24.808Z,99877.47
2022-11-24T12:22:36.144Z,99883.59
2022-11-24T12:23:48.223Z,99877.91
2022-11-24T12:24:56.240Z,99876.41
2022-11-24T12:26:05.492Z,99878.13
2022-11-24T12:27:12.089Z,99874.34
2022-11-24T12:28:24.011Z,99873.75
2022-11-24T12:29:44.971Z,99873.09
2022-11-24T12:30:54.777Z,99873.09
2022-11-24T12:32:00.539Z,99870.13
2022-11-24T12:33:15.433Z,99866.94
2022-11-24T12:34:42.020Z,99870.94
2022-11-24T12:35:46.131Z,99877.47
2022-11-24T12:37:03.757Z,99895.66
2022-11-24T12:38:19.325Z,99877.94
2022-11-24T12:39:27.173Z,99881.50
2022-11-24T12:40:43.620Z,99886.38
2022-11-24T12:41:57.851Z,99902.41
2022-11-24T12:43:06.921Z,99878.34
2022-11-24T12:44:19.086Z,99886.78